Barbados Meteorological Services
Auto gathered TAF list
Powered by Apparatus software
For Flight AA2296
Contact Number 1-(246)-535-0021/2/3/4/5/6
WEB: http://www.barbadosweather.org

**********************************************

2019/11/14 12:05
TAF TLPL 141101Z 1412/1512 07013KT 9999 SCT024
TEMPO 1412/1424 SHRA BKN018TCU


**********************************************
2019/11/14 12:24
TAF TJSJ 141120Z 1412/1512 09004KT P6SM VCSH SCT025 SCT060
FM141400 06013G20KT P6SM FEW025 SCT050
FM142200 08008KT P6SM FEW030 SCT050
FM150600 00000KT P6SM VCSH SCT030


**********************************************
2019/11/14 12:18
TAF TFFR 141000Z 1412/1512 10012KT 9999 SCT030
TEMPO 1412/1420 4000 SHRA SCT020TCU
BECMG 1422/1424 VRB02KT


**********************************************
2019/11/14 12:19
TAF TBPB 141100Z 1412/1512 08011KT 9999 SCT018
TEMPO 1412/1420 SHRA


**********************************************
2019/11/14 12:16
TAF TAPA 141100Z 1412/1512 06010KT 9999 SCT020


**********************************************
2019/11/14 12:45
TAF MYNN 141015Z 1412/1512 09006KT 9999 SCT020 SCT050 PROB30
TEMPO 1419/1421 9000 SHRA


**********************************************
2019/11/12 12:07
TAF MTPP 121038Z 1212/1312 13004KT 8000 FEW020
BECMG 1214/1218 09010KT
BECMG 1219/1223 27010KT FEW022CB SCT030 PROB30
TEMPO 1300/1304 09010KT 4500 SHRA SCT022CB SCT040
BECMG 1308/1312 VRB02KT 9000 FEW020


**********************************************
2019/11/14 18:12
TAF MDSD 141600Z 1418/1518 17006KT 9999 SCT018
TEMPO 1419/1423 8000 -SH FEW018CB SCT018


**********************************************
2019/11/14 12:42
TAF KSFB 141140Z 1412/1512 35006KT P6SM SCT060 BKN090
FM141500 08010KT P6SM SCT030 BKN060
FM150200 07005KT P6SM VCSH SCT030 BKN050
TEMPO 1505/1509 3SM -SHRA BKN020
FM151000 19005KT P6SM VCSH BKN025


**********************************************
2019/11/14 15:57
TAF
AMD KPHL 141455Z 1415/1518 21010KT P6SM BKN250
FM142200 22005KT P6SM BKN250
FM150500 VRB03KT P6SM BKN250
FM151400 28008KT P6SM SCT250


**********************************************
2019/11/14 15:23
TAF
AMD KPBI 141518Z 1415/1512 10015KT P6SM VCSH SCT025 BKN035
FM150000 VRB03KT P6SM VCSH SCT040 BKN100


**********************************************
2019/11/14 15:21
TAF
AMD KOPF 141518Z 1415/1512 07012KT P6SM VCSH SCT025 BKN035
TEMPO 1415/1417 BKN025
FM150300 VRB03KT P6SM SCT040 BKN120


**********************************************


**********************************************
2019/11/14 15:21
TAF
AMD KMIA 141518Z 1415/1518 07012KT P6SM VCSH SCT025 BKN035
TEMPO 1415/1417 BKN025
FM150000 VRB04KT P6SM SCT040 BKN120
FM151400 23007KT P6SM VCSH SCT025 BKN035 BKN060


**********************************************
2019/11/14 15:58
TAF
AMD KMCO 141457Z 1415/1518 04011KT P6SM FEW040 BKN070 BKN100
FM150200 06006KT P6SM VCSH SCT030 BKN050
TEMPO 1504/1508 3SM -SHRA BKN020
FM150900 19005KT P6SM VCSH BKN025
FM151500 24008KT P6SM SCT025 BKN080


**********************************************
2019/11/14 15:29
TAF
AMD KJFK 141522Z 1415/1518 VRB05KT P6SM SCT035 BKN250
FM141700 17005KT P6SM SCT035 BKN250
FM141800 20010KT P6SM SCT040 SCT150 BKN250
FM150000 23008KT P6SM SCT250
FM150600 28007KT P6SM SCT250


**********************************************
2019/11/14 15:03
TAF
AMD KJAX 141500Z 1415/1512 01008KT P6SM OVC009
FM141800 02008KT P6SM BKN012 OVC070
FM142100 03011KT P6SM VCSH OVC015
FM150000 04008KT 5SM -RA BR OVC008


**********************************************
2019/11/14 15:23
TAF
AMD KFLL 141518Z 1415/1518 10015KT P6SM VCSH SCT015 BKN035
TEMPO 1415/1417 07015G25KT 2SM RA SCT010 BKN025
FM150000 VRB05KT P6SM SCT040 BKN120
FM151400 23008KT P6SM VCSH SCT025 BKN035 BKN060


**********************************************
2019/11/14 15:24
TAF
AMD KEWR 141522Z 1415/1518 VRB05KT P6SM BKN035 BKN250
FM141700 20007KT P6SM SCT040 BKN250
FM141800 22009KT P6SM SCT040 BKN250
FM150000 24006KT P6SM SCT250
FM150600 26006KT P6SM SCT250


**********************************************
2019/11/14 16:48
TAF
AMD KCLT 141546Z 1416/1518 VRB04KT P6SM OVC020
FM150300 01004KT 4SM -SHRA BR SCT003 OVC006
FM151300 03007KT P6SM VCSH BKN050


**********************************************
2019/11/14 16:58
TAF
AMD KATL 141558Z 1416/1518 08009KT P6SM OVC015
FM141800 06007KT P6SM VCSH BKN020
FM142300 04006KT P6SM -RA OVC015
FM150300 03005KT 4SM -RA BR OVC006
TEMPO 1506/1510 2SM -RADZ BR OVC004
FM151100 35007KT 6SM BR VCSH OVC015
FM151400 35007KT P6SM BKN025


**********************************************